Time;durP1;ratioP1;P1;durP2;ratioP2;P2;SDS_P1;SDS_P2;PMS_P1;PMS_P2;Temp;Humidity;BMP_temperature;BMP_pressure;BME280_temperature;BME280_humidity;BME280_pressure;Samples;Min_cycle;Max_cycle;Signal;HPM_P1;HPM_P2
2022/05/24 00:00:00;;;;;;;;;;;20.50;75.20;;;;;;6159830;23;19982;-78
2022/05/24 00:02:27;;;;;;;;;;;20.40;75.50;;;;;;6157138;23;19920;-78
2022/05/24 00:04:54;;;;;;;;;;;20.40;75.80;;;;;;6160562;23;19920;-78
2022/05/24 00:07:21;;;;;;;;;;;20.30;76.00;;;;;;6156982;23;20264;-78
2022/05/24 00:09:47;;;;;;;;;;;20.20;76.10;;;;;;6159138;23;19924;-78
2022/05/24 00:12:14;;;;;;;;;;;20.20;76.20;;;;;;6157091;23;19916;-78
2022/05/24 00:17:26;;;;;;;;;;;20.10;76.50;;;;;;6184988;23;20348;-79
2022/05/24 00:19:53;;;;;;;;;;;20.10;76.50;;;;;;6161830;23;19923;-79
2022/05/24 00:22:20;;;;;;;;;;;20.10;76.60;;;;;;6158685;23;19920;-80
2022/05/24 00:24:47;;;;;;;;;;;20.10;76.60;;;;;;6159319;23;19923;-80
2022/05/24 00:27:14;;;;;;;;;;;20.10;76.60;;;;;;6157361;23;20333;-78
2022/05/24 00:29:41;;;;;;;;;;;20.00;76.50;;;;;;6157670;23;20356;-78
2022/05/24 00:32:08;;;;;;;;;;;20.00;76.40;;;;;;6159423;23;19920;-77
2022/05/24 00:34:35;;;;;;;;;;;20.00;76.40;;;;;;6156953;23;19995;-78
2022/05/24 00:37:01;;;;;;;;;;;20.00;76.40;;;;;;6185194;23;19966;-77
2022/05/24 00:39:28;;;;;;;;;;;20.00;76.60;;;;;;6159525;23;19923;-78
2022/05/24 00:41:57;;;;;;;;;;;20.00;76.50;;;;;;6161640;23;20310;-78
2022/05/24 00:44:28;;;;;;;;;;;19.90;76.70;;;;;;6158533;23;19916;-78
2022/05/24 00:46:56;;;;;;;;;;;19.90;76.80;;;;;;6160910;23;19974;-78
2022/05/24 00:49:25;;;;;;;;;;;19.90;77.90;;;;;;6159430;23;19916;-78
2022/05/24 00:51:54;;;;;;;;;;;19.80;77.60;;;;;;6160221;23;19943;-80
2022/05/24 00:54:21;;;;;;;;;;;19.70;77.00;;;;;;6161334;23;19916;-77
2022/05/24 00:57:04;;;;;;;;;;;19.70;76.50;;;;;;6160109;23;19948;-78
2022/05/24 00:59:37;;;;;;;;;;;19.80;76.30;;;;;;6159142;23;19924;-78
2022/05/24 01:02:04;;;;;;;;;;;19.60;76.90;;;;;;6160417;23;20329;-80
2022/05/24 01:04:31;;;;;;;;;;;19.60;77.50;;;;;;6159938;23;19924;-78
2022/05/24 01:06:58;;;;;;;;;;;19.50;77.50;;;;;;6160340;23;19916;-80
2022/05/24 01:09:36;;;;;;;;;;;19.50;77.70;;;;;;6183747;23;19923;-80
2022/05/24 01:12:05;;;;;;;;;;;19.50;78.40;;;;;;6158864;23;19916;-78
2022/05/24 01:14:32;;;;;;;;;;;19.40;78.40;;;;;;6158389;23;19916;-78
2022/05/24 01:16:59;;;;;;;;;;;19.40;79.00;;;;;;6159371;23;19916;-77
2022/05/24 01:19:40;;;;;;;;;;;19.30;79.60;;;;;;6158769;23;20337;-79
2022/05/24 01:22:26;;;;;;;;;;;19.30;80.00;;;;;;6159728;23;19967;-79
2022/05/24 01:25:13;;;;;;;;;;;19.30;79.80;;;;;;6158961;23;20399;-78
2022/05/24 01:27:40;;;;;;;;;;;19.20;79.40;;;;;;6148686;23;20292;-79
2022/05/24 01:30:08;;;;;;;;;;;19.30;79.40;;;;;;6159544;23;19963;-77
2022/05/24 01:38:09;;;;;;;;;;;19.20;78.80;;;;;;6184859;23;19975;-78
2022/05/24 01:40:36;;;;;;;;;;;19.20;78.60;;;;;;6159535;23;19990;-77
2022/05/24 01:43:03;;;;;;;;;;;19.20;78.50;;;;;;6158413;23;19916;-80
2022/05/24 01:45:36;;;;;;;;;;;19.20;78.40;;;;;;6185373;23;19926;-78
2022/05/24 01:48:05;;;;;;;;;;;19.20;78.30;;;;;;6156933;23;19924;-78
2022/05/24 01:50:32;;;;;;;;;;;19.20;78.20;;;;;;6159274;23;19974;-78
2022/05/24 01:53:02;;;;;;;;;;;19.10;78.40;;;;;;6158563;23;19935;-77
2022/05/24 01:55:31;;;;;;;;;;;19.00;78.40;;;;;;6158908;23;20289;-78
2022/05/24 01:57:59;;;;;;;;;;;19.00;78.30;;;;;;6158514;23;19916;-80
2022/05/24 02:00:26;;;;;;;;;;;19.00;78.20;;;;;;6159773;23;19962;-77
2022/05/24 02:02:52;;;;;;;;;;;19.00;78.10;;;;;;6159188;23;19916;-78
2022/05/24 02:05:33;;;;;;;;;;;19.00;78.00;;;;;;6159144;23;20396;-78
2022/05/24 02:08:00;;;;;;;;;;;19.00;78.00;;;;;;6159774;23;19920;-78
2022/05/24 02:10:30;;;;;;;;;;;18.90;78.00;;;;;;6159166;23;20330;-78
2022/05/24 02:12:59;;;;;;;;;;;18.90;78.40;;;;;;6158796;23;19962;-77
2022/05/24 02:15:31;;;;;;;;;;;18.80;78.60;;;;;;6159877;23;19916;-78
2022/05/24 02:17:58;;;;;;;;;;;18.80;78.40;;;;;;6158476;23;19917;-78
2022/05/24 02:20:29;;;;;;;;;;;18.70;78.20;;;;;;6159177;23;19935;-79
2022/05/24 02:22:56;;;;;;;;;;;18.70;78.10;;;;;;6157663;23;19916;-78
2022/05/24 02:25:43;;;;;;;;;;;18.70;78.00;;;;;;6163085;23;19917;-77
2022/05/24 02:28:12;;;;;;;;;;;18.70;77.80;;;;;;6147803;23;19970;-78
2022/05/24 02:30:40;;;;;;;;;;;18.80;77.70;;;;;;6158400;23;19916;-77
2022/05/24 02:33:06;;;;;;;;;;;18.80;77.60;;;;;;6157460;23;19925;-77
2022/05/24 02:35:33;;;;;;;;;;;18.70;77.60;;;;;;6137648;23;19942;-79
2022/05/24 02:38:00;;;;;;;;;;;18.70;77.80;;;;;;6153820;23;19920;-79
2022/05/24 02:43:12;;;;;;;;;;;18.70;78.10;;;;;;6153860;23;19925;-78
2022/05/24 02:45:40;;;;;;;;;;;18.70;77.60;;;;;;6154150;23;19920;-77
2022/05/24 02:48:08;;;;;;;;;;;18.70;77.20;;;;;;6155779;23;20308;-79
2022/05/24 02:50:34;;;;;;;;;;;18.70;76.80;;;;;;6154101;23;19963;-77
2022/05/24 02:53:01;;;;;;;;;;;18.70;76.50;;;;;;6156973;23;19916;-78
2022/05/24 02:55:28;;;;;;;;;;;18.70;75.90;;;;;;6154067;23;20330;-79
2022/05/24 02:57:55;;;;;;;;;;;18.60;75.50;;;;;;6155269;23;19920;-78
2022/05/24 03:00:23;;;;;;;;;;;18.60;75.40;;;;;;6156456;23;19980;-77
2022/05/24 03:02:49;;;;;;;;;;;18.60;75.00;;;;;;6156772;23;19916;-77
2022/05/24 03:05:17;;;;;;;;;;;18.60;74.50;;;;;;6152923;23;19955;-77
2022/05/24 03:10:30;;;;;;;;;;;18.60;73.70;;;;;;6159023;23;20285;-79
2022/05/24 03:15:44;;;;;;;;;;;18.60;73.10;;;;;;6155039;23;19971;-77
2022/05/24 03:18:12;;;;;;;;;;;18.60;72.80;;;;;;6154876;23;20009;-78
2022/05/24 03:20:39;;;;;;;;;;;18.60;72.30;;;;;;6153930;23;19924;-77
2022/05/24 03:23:06;;;;;;;;;;;18.50;72.20;;;;;;6156547;23;19920;-78
2022/05/24 03:25:33;;;;;;;;;;;18.50;72.20;;;;;;6156016;23;19920;-78
2022/05/24 03:28:01;;;;;;;;;;;18.50;72.20;;;;;;6153404;23;19969;-77
2022/05/24 03:30:28;;;;;;;;;;;18.50;72.20;;;;;;6152231;23;20005;-78
2022/05/24 03:32:55;;;;;;;;;;;18.50;72.00;;;;;;6155156;23;19921;-78
2022/05/24 03:35:22;;;;;;;;;;;18.50;72.00;;;;;;6153537;23;19920;-79
2022/05/24 03:37:49;;;;;;;;;;;18.50;72.00;;;;;;6155118;23;19967;-78
2022/05/24 03:40:16;;;;;;;;;;;18.50;70.80;;;;;;6154923;23;19963;-78
2022/05/24 03:42:45;;;;;;;;;;;18.50;68.70;;;;;;6154664;23;19921;-77
2022/05/24 03:45:12;;;;;;;;;;;18.50;69.40;;;;;;6154721;23;19991;-78
2022/05/24 03:47:39;;;;;;;;;;;18.50;69.60;;;;;;6157547;23;19923;-79
2022/05/24 03:50:07;;;;;;;;;;;18.50;69.70;;;;;;6158500;23;20249;-79
2022/05/24 03:52:34;;;;;;;;;;;18.50;69.80;;;;;;6154579;23;19916;-77
2022/05/24 03:55:01;;;;;;;;;;;18.50;69.90;;;;;;6159451;23;19917;-77
2022/05/24 04:00:14;;;;;;;;;;;18.40;70.00;;;;;;6160327;23;19921;-78
2022/05/24 04:02:41;;;;;;;;;;;18.40;70.10;;;;;;6154667;23;19971;-78
2022/05/24 04:05:08;;;;;;;;;;;18.40;71.00;;;;;;6153531;23;20400;-78
2022/05/24 04:07:36;;;;;;;;;;;18.30;70.00;;;;;;6158922;23;19939;-78
2022/05/24 04:10:03;;;;;;;;;;;18.30;69.90;;;;;;6158158;23;19971;-78
2022/05/24 04:12:31;;;;;;;;;;;18.30;69.80;;;;;;6152077;23;19963;-77
2022/05/24 04:14:58;;;;;;;;;;;18.30;69.80;;;;;;6154168;23;20330;-77
2022/05/24 04:17:24;;;;;;;;;;;18.30;69.70;;;;;;6130363;23;19964;-77
2022/05/24 04:19:51;;;;;;;;;;;18.30;69.70;;;;;;6158954;23;20350;-76
2022/05/24 04:22:18;;;;;;;;;;;18.30;69.80;;;;;;6159834;23;19917;-77
2022/05/24 04:24:45;;;;;;;;;;;18.30;70.70;;;;;;6153487;23;19916;-78
2022/05/24 04:27:12;;;;;;;;;;;18.20;70.60;;;;;;6159398;23;19920;-78
2022/05/24 04:29:40;;;;;;;;;;;18.20;70.40;;;;;;6151640;23;19916;-78
2022/05/24 04:32:09;;;;;;;;;;;18.20;70.30;;;;;;6155001;23;19917;-78
2022/05/24 04:34:36;;;;;;;;;;;18.30;70.30;;;;;;6154411;23;19971;-77
2022/05/24 04:37:07;;;;;;;;;;;18.30;70.20;;;;;;6158353;23;20257;-78
2022/05/24 04:39:34;;;;;;;;;;;18.30;70.20;;;;;;6159260;23;20397;-79
2022/05/24 04:42:19;;;;;;;;;;;18.30;70.70;;;;;;6156435;23;19916;-77
2022/05/24 04:44:46;;;;;;;;;;;18.30;71.20;;;;;;6156411;23;19928;-78
2022/05/24 04:47:14;;;;;;;;;;;18.20;71.90;;;;;;6157944;23;19939;-78
2022/05/24 04:49:42;;;;;;;;;;;18.20;72.70;;;;;;6151616;23;20330;-77
2022/05/24 04:52:10;;;;;;;;;;;18.20;72.80;;;;;;6152394;23;20234;-77
2022/05/24 04:54:37;;;;;;;;;;;18.20;72.90;;;;;;6154740;23;19916;-77
2022/05/24 04:57:07;;;;;;;;;;;18.20;73.10;;;;;;6155364;23;19943;-77
2022/05/24 04:59:34;;;;;;;;;;;18.20;73.10;;;;;;6155935;23;19920;-78
2022/05/24 05:02:01;;;;;;;;;;;18.20;73.30;;;;;;6154229;23;19921;-76
2022/05/24 05:04:28;;;;;;;;;;;18.10;73.20;;;;;;6152267;23;19967;-77
2022/05/24 05:06:55;;;;;;;;;;;18.10;73.60;;;;;;6152878;23;19924;-76
2022/05/24 05:09:21;;;;;;;;;;;18.10;73.60;;;;;;6154378;23;20250;-79
2022/05/24 05:11:48;;;;;;;;;;;18.10;73.50;;;;;;6154170;23;19916;-79
2022/05/24 05:14:19;;;;;;;;;;;18.10;73.40;;;;;;6155718;23;19916;-77
2022/05/24 05:16:46;;;;;;;;;;;18.20;73.50;;;;;;6152502;23;19917;-79
2022/05/24 05:19:13;;;;;;;;;;;18.20;73.70;;;;;;6161718;23;19920;-78
2022/05/24 05:21:40;;;;;;;;;;;18.20;73.80;;;;;;6153565;23;19928;-78
2022/05/24 05:24:07;;;;;;;;;;;18.20;74.00;;;;;;6153454;23;19924;-77
2022/05/24 05:26:34;;;;;;;;;;;18.30;74.00;;;;;;6153589;23;19916;-77
2022/05/24 05:29:02;;;;;;;;;;;18.40;73.70;;;;;;6154536;23;20253;-80
2022/05/24 05:31:28;;;;;;;;;;;18.40;73.50;;;;;;6154054;23;19916;-77
2022/05/24 05:33:56;;;;;;;;;;;18.50;73.30;;;;;;6154499;23;19921;-77
2022/05/24 05:36:24;;;;;;;;;;;18.60;73.10;;;;;;6155365;23;20399;-77
2022/05/24 05:38:50;;;;;;;;;;;18.70;72.90;;;;;;6154771;23;19970;-77
2022/05/24 05:41:19;;;;;;;;;;;18.80;72.40;;;;;;6154756;23;19948;-78
2022/05/24 05:43:45;;;;;;;;;;;18.90;72.20;;;;;;6153288;23;19963;-79
2022/05/24 05:46:13;;;;;;;;;;;19.00;72.10;;;;;;6156650;23;19916;-77
2022/05/24 05:48:40;;;;;;;;;;;19.10;71.80;;;;;;6154308;23;19921;-78
2022/05/24 05:51:08;;;;;;;;;;;19.30;70.90;;;;;;6134543;23;19968;-78
2022/05/24 05:53:35;;;;;;;;;;;19.40;70.10;;;;;;6150342;23;19975;-79
2022/05/24 05:56:02;;;;;;;;;;;19.40;69.70;;;;;;6154471;23;19967;-79
2022/05/24 05:58:29;;;;;;;;;;;19.50;69.00;;;;;;6155474;23;19917;-79
2022/05/24 06:00:56;;;;;;;;;;;19.60;68.50;;;;;;6154042;23;19971;-77
2022/05/24 06:03:23;;;;;;;;;;;19.60;68.00;;;;;;6154025;23;19920;-78
2022/05/24 06:05:51;;;;;;;;;;;19.70;67.40;;;;;;6152914;23;19979;-77
2022/05/24 06:08:18;;;;;;;;;;;19.70;67.30;;;;;;6154853;23;20338;-78
2022/05/24 06:10:47;;;;;;;;;;;19.80;67.80;;;;;;6153366;23;19920;-77
2022/05/24 06:13:14;;;;;;;;;;;19.80;67.30;;;;;;6153704;23;19950;-78
2022/05/24 06:15:41;;;;;;;;;;;19.80;67.10;;;;;;6153857;23;19921;-79
2022/05/24 06:18:08;;;;;;;;;;;19.90;67.20;;;;;;6155447;23;19964;-79
2022/05/24 06:20:35;;;;;;;;;;;20.00;67.20;;;;;;6153434;23;19921;-78
2022/05/24 06:23:01;;;;;;;;;;;20.10;66.70;;;;;;6154552;23;19916;-77
2022/05/24 06:25:30;;;;;;;;;;;20.10;65.00;;;;;;6155114;23;19917;-78
2022/05/24 06:27:57;;;;;;;;;;;20.20;65.10;;;;;;6154006;23;19920;-78
2022/05/24 06:30:24;;;;;;;;;;;20.30;64.90;;;;;;6153493;23;19940;-78
2022/05/24 06:32:51;;;;;;;;;;;20.30;64.90;;;;;;6128369;23;20349;-79
2022/05/24 06:35:18;;;;;;;;;;;20.50;65.20;;;;;;6153538;23;19917;-78
2022/05/24 06:37:46;;;;;;;;;;;20.60;65.60;;;;;;6153161;23;19920;-79
2022/05/24 06:40:14;;;;;;;;;;;20.60;64.80;;;;;;6153988;23;19916;-79
2022/05/24 06:42:41;;;;;;;;;;;20.70;64.50;;;;;;6152498;23;19920;-78
2022/05/24 06:45:08;;;;;;;;;;;20.70;64.50;;;;;;6155786;23;19924;-76
2022/05/24 06:47:36;;;;;;;;;;;20.80;63.80;;;;;;6155392;23;19927;-78
2022/05/24 06:50:03;;;;;;;;;;;20.80;64.10;;;;;;6155612;23;19944;-77
2022/05/24 06:52:30;;;;;;;;;;;20.90;63.90;;;;;;6155818;23;19925;-79
2022/05/24 06:54:57;;;;;;;;;;;21.00;63.80;;;;;;6153536;23;19917;-80
2022/05/24 06:57:23;;;;;;;;;;;21.00;63.30;;;;;;6155449;23;20325;-80
2022/05/24 07:02:36;;;;;;;;;;;21.00;63.10;;;;;;6154775;23;19921;-79
2022/05/24 07:05:08;;;;;;;;;;;21.10;63.00;;;;;;6155636;23;19928;-80
2022/05/24 07:07:36;;;;;;;;;;;21.20;63.90;;;;;;6154638;23;19916;-78
2022/05/24 07:10:03;;;;;;;;;;;21.20;63.20;;;;;;6153613;23;19971;-79
2022/05/24 07:12:30;;;;;;;;;;;21.30;63.10;;;;;;6154639;23;19989;-80
2022/05/24 07:14:58;;;;;;;;;;;21.30;62.90;;;;;;6154716;23;19920;-78
2022/05/24 07:17:25;;;;;;;;;;;21.40;63.30;;;;;;6154513;23;19917;-78
2022/05/24 07:19:52;;;;;;;;;;;21.50;63.70;;;;;;6157327;23;19916;-78
2022/05/24 07:22:19;;;;;;;;;;;21.60;63.10;;;;;;6157496;23;19916;-78
2022/05/24 07:24:48;;;;;;;;;;;21.60;63.10;;;;;;6152562;23;20308;-78
2022/05/24 07:27:18;;;;;;;;;;;21.60;63.10;;;;;;6153329;23;19920;-79
2022/05/24 07:29:45;;;;;;;;;;;21.60;63.10;;;;;;6153963;23;20337;-79
2022/05/24 07:32:12;;;;;;;;;;;21.60;61.60;;;;;;6155681;23;19923;-79
2022/05/24 07:34:40;;;;;;;;;;;21.70;62.00;;;;;;6154333;23;19924;-81
2022/05/24 07:37:11;;;;;;;;;;;21.80;61.50;;;;;;6153984;23;20226;-80
2022/05/24 07:39:38;;;;;;;;;;;21.90;60.20;;;;;;6155013;23;19917;-79
2022/05/24 07:47:41;;;;;;;;;;;22.30;60.20;;;;;;6154406;23;19917;-80
2022/05/24 07:50:08;;;;;;;;;;;22.50;60.90;;;;;;6153025;23;20256;-78
2022/05/24 07:52:35;;;;;;;;;;;22.60;60.10;;;;;;6154921;23;19921;-79
2022/05/24 07:55:02;;;;;;;;;;;22.80;60.40;;;;;;6155534;23;20333;-78
2022/05/24 07:57:30;;;;;;;;;;;23.00;60.50;;;;;;6157709;23;19927;-81
2022/05/24 08:00:03;;;;;;;;;;;23.10;59.30;;;;;;6157833;23;19996;-78
2022/05/24 08:02:30;;;;;;;;;;;23.30;58.70;;;;;;6156752;23;19967;-78
2022/05/24 08:04:57;;;;;;;;;;;23.40;58.80;;;;;;6152446;23;19924;-77
2022/05/24 08:07:24;;;;;;;;;;;23.40;58.70;;;;;;6155047;23;20270;-79
2022/05/24 08:09:51;;;;;;;4.28;2.22;;;23.50;57.70;;;;;;6155453;23;19963;-80
2022/05/24 08:12:18;;;;;;;3.05;1.80;;;23.60;57.00;;;;;;6151191;23;20437;-79
2022/05/24 08:14:45;;;;;;;4.22;2.00;;;23.70;57.20;;;;;;6152679;23;20432;-79
2022/05/24 08:17:12;;;;;;;3.08;1.73;;;23.80;57.40;;;;;;6151942;23;20676;-78
2022/05/24 08:19:39;;;;;;;3.38;1.70;;;24.10;56.00;;;;;;6150068;23;20374;-80
2022/05/24 08:22:07;;;;;;;5.68;1.70;;;24.20;55.90;;;;;;6151018;23;20441;-78
2022/05/24 08:24:34;;;;;;;5.87;2.10;;;24.50;54.40;;;;;;6151528;23;20448;-79
2022/05/24 08:27:01;;;;;;;2.53;1.60;;;24.70;54.80;;;;;;6153317;23;20045;-80
2022/05/24 08:29:28;;;;;;;4.53;1.90;;;24.80;53.90;;;;;;6152737;23;20390;-78
2022/05/24 08:31:55;;;;;;;3.58;1.92;;;25.00;52.40;;;;;;6155337;23;20440;-80
2022/05/24 08:34:22;;;;;;;5.50;2.20;;;25.00;53.00;;;;;;6157665;23;20448;-80
2022/05/24 08:36:49;;;;;;;3.78;2.00;;;25.00;52.60;;;;;;6154243;23;20921;-78
2022/05/24 08:39:16;;;;;;;6.65;2.08;;;25.00;54.20;;;;;;6154539;23;20461;-78
2022/05/24 08:41:51;;;;;;;4.35;1.80;;;25.00;53.20;;;;;;6152689;23;20385;-79
2022/05/24 08:50:07;;;;;;;4.47;1.90;;;25.50;53.90;;;;;;6155937;23;20429;-80
2022/05/24 08:52:39;;;;;;;4.47;1.77;;;25.70;53.10;;;;;;6155142;23;20362;-78
2022/05/24 08:55:10;;;;;;;4.90;1.83;;;25.90;53.60;;;;;;6160544;23;20838;-78
2022/05/24 08:57:54;;;;;;;;;;;26.00;52.90;;;;;;6153338;23;20118;-78
2022/05/24 09:00:24;;;;;;;;;;;25.90;51.20;;;;;;6154093;23;19927;-79
2022/05/24 09:02:51;;;;;;;;;;;25.80;51.90;;;;;;6154554;23;19940;-79
2022/05/24 09:05:29;;;;;;;5.38;2.10;;;25.80;53.20;;;;;;6157423;23;19916;-78
2022/05/24 09:08:33;;;;;;;3.67;1.67;;;25.90;53.30;;;;;;6155458;23;20146;-79
2022/05/24 09:11:20;;;;;;;9.38;2.28;;;26.00;54.30;;;;;;6159729;23;20462;-79
2022/05/24 09:14:12;;;;;;;5.00;1.75;;;26.20;52.50;;;;;;6155936;23;20072;-78
2022/05/24 09:16:45;;;;;;;;;;;26.20;52.10;;;;;;6153860;23;20029;-78
2022/05/24 09:19:15;;;;;;;;;;;26.30;53.20;;;;;;6158004;23;19916;-78
2022/05/24 09:21:43;;;;;;;;;;;26.40;51.20;;;;;;6157061;23;19916;-81
2022/05/24 09:24:16;;;;;;;;;;;26.20;51.00;;;;;;6156318;23;19947;-78
2022/05/24 09:27:01;;;;;;;;;;;26.30;52.80;;;;;;6156841;23;19920;-79
2022/05/24 09:29:28;;;;;;;;;;;26.40;50.90;;;;;;6154966;23;19924;-80
2022/05/24 09:31:56;;;;;;;;;;;26.30;49.80;;;;;;6161791;23;19921;-79
2022/05/24 09:34:27;;;;;;;;;;;26.20;50.70;;;;;;6155903;23;20290;-77
2022/05/24 09:36:56;;;;;;;;;;;26.10;51.70;;;;;;6153339;23;19916;-79
2022/05/24 09:39:27;;;;;;;;;;;26.30;52.80;;;;;;6157034;23;20295;-79
2022/05/24 09:41:54;;;;;;;;;;;26.50;51.20;;;;;;6156707;23;19917;-77
2022/05/24 09:44:21;;;;;;;;;;;26.50;49.00;;;;;;6153838;23;19928;-78
2022/05/24 09:46:48;;;;;;;;;;;26.40;50.60;;;;;;6156365;23;19924;-81
2022/05/24 09:49:20;;;;;;;;;;;26.40;50.90;;;;;;6159377;23;19943;-81
2022/05/24 09:51:49;;;;;;;;;;;26.40;49.80;;;;;;6156701;23;20326;-77
2022/05/24 09:54:21;;;;;;;;;;;26.40;50.10;;;;;;6153868;23;19916;-78
2022/05/24 09:57:05;;;;;;;;;;;26.30;51.30;;;;;;6157914;23;19917;-78
2022/05/24 09:59:32;;;;;;;;;;;26.20;51.30;;;;;;6154304;23;19921;-77
2022/05/24 10:02:01;;;;;;;;;;;25.90;51.20;;;;;;6157435;23;20405;-79
2022/05/24 10:04:36;;;;;;;;;;;25.60;52.30;;;;;;6154017;23;19992;-78
2022/05/24 10:07:23;;;;;;;;;;;25.60;52.90;;;;;;6153474;23;19920;-80
2022/05/24 10:10:09;;;;;;;;;;;25.50;51.50;;;;;;6148346;23;19916;-81
2022/05/24 10:12:47;;;;;;;;;;;25.40;52.80;;;;;;6155626;23;19971;-78
2022/05/24 10:15:17;;;;;;;;;;;25.40;53.70;;;;;;6155498;23;19917;-81
2022/05/24 10:18:00;;;;;;;;;;;25.50;54.30;;;;;;6154602;23;20337;-78
2022/05/24 10:20:38;;;;;;;7.03;2.65;;;25.70;53.20;;;;;;6152799;23;20293;-78
2022/05/24 10:23:15;;;;;;;5.35;2.65;;;25.90;52.50;;;;;;6152563;23;20429;-78
2022/05/24 10:25:49;;;;;;;4.90;2.20;;;25.90;53.20;;;;;;6152979;23;20426;-79
2022/05/24 10:28:39;;;;;;;6.85;2.35;;;26.00;53.60;;;;;;6154280;23;20470;-78
2022/05/24 10:31:28;;;;;;;8.10;2.20;;;26.20;52.20;;;;;;6151327;23;20433;-78
2022/05/24 10:40:10;;;;;;;4.00;2.15;;;26.20;52.90;;;;;;6153344;23;20378;-77
2022/05/24 10:42:55;;;;;;;4.93;2.28;;;26.40;52.10;;;;;;6151727;23;20772;-78
2022/05/24 10:45:49;;;;;;;6.07;2.10;;;26.70;51.80;;;;;;6151728;23;20415;-79
2022/05/24 10:48:34;;;;;;;4.80;2.53;;;27.00;51.80;;;;;;6152339;23;20423;-81
2022/05/24 10:51:13;;;;;;;3.33;1.85;;;27.30;49.90;;;;;;6152604;23;20374;-78
2022/05/24 10:54:01;;;;;;;4.57;1.85;;;27.40;49.60;;;;;;6151508;23;20386;-80
2022/05/24 10:56:39;;;;;;;3.67;1.90;;;27.20;49.30;;;;;;6153709;23;20374;-80
2022/05/24 10:59:20;;;;;;;2.92;1.70;;;27.00;50.20;;;;;;6150674;23;20378;-78
2022/05/24 11:01:58;;;;;;;4.05;1.67;;;27.00;48.80;;;;;;6153342;23;20374;-81
2022/05/24 11:05:12;;;;;;;6.00;1.90;;;26.90;49.30;;;;;;6151263;23;20377;-78
2022/05/24 11:07:39;;;;;;;4.63;2.05;;;27.20;50.70;;;;;;6128300;23;20373;-78
2022/05/24 11:10:17;;;;;;;3.63;1.75;;;27.60;48.40;;;;;;6151596;23;20386;-81
2022/05/24 11:12:53;;;;;;;3.92;1.83;;;27.40;48.20;;;;;;6150803;23;20378;-78
2022/05/24 11:15:51;;;;;;;4.75;2.10;;;27.30;46.60;;;;;;6150180;23;20433;-79
2022/05/24 11:18:22;;;;;;;3.63;1.80;;;27.10;47.30;;;;;;6141285;23;20401;-81
2022/05/24 11:20:57;;;;;;;6.57;2.60;;;27.10;49.70;;;;;;6151356;23;20857;-79
2022/05/24 11:23:30;;;;;;;5.65;2.05;;;27.00;49.40;;;;;;6151996;23;20436;-78
2022/05/24 11:26:13;;;;;;;5.07;2.15;;;26.90;49.30;;;;;;6153087;23;20846;-79
2022/05/24 11:28:53;;;;;;;4.93;2.30;;;26.70;50.20;;;;;;6150976;23;20436;-81
2022/05/24 11:31:50;;;;;;;4.00;1.90;;;26.80;50.50;;;;;;6152802;23;20390;-79
2022/05/24 11:34:39;;;;;;;5.00;1.83;;;27.10;49.70;;;;;;6175573;23;20390;-79
2022/05/24 11:37:31;;;;;;;6.85;2.00;;;27.30;48.60;;;;;;6150432;23;20378;-78
2022/05/24 11:40:20;;;;;;;3.08;1.80;;;27.30;48.60;;;;;;6150022;23;20390;-79
2022/05/24 11:42:47;;;;;;;4.32;1.73;;;27.50;48.70;;;;;;6152194;23;20377;-79
2022/05/24 11:45:30;;;;;;;3.27;1.83;;;27.70;48.60;;;;;;6150746;23;20743;-80
2022/05/24 11:48:00;;;;;;;4.63;2.20;;;27.90;48.30;;;;;;6150648;23;20374;-77
2022/05/24 11:50:39;;;;;;;3.70;1.80;;;28.10;47.40;;;;;;6150928;23;20409;-78
2022/05/24 11:53:25;;;;;;;6.43;2.00;;;28.30;47.50;;;;;;6150947;23;20485;-80
2022/05/24 11:55:55;;;;;;;2.60;1.33;;;28.40;46.20;;;;;;6151460;23;20754;-78
2022/05/24 11:58:22;;;;;;;8.13;1.60;;;28.50;46.60;;;;;;6128503;23;20092;-79
2022/05/24 12:01:01;;;;;;;5.53;2.42;;;28.60;46.20;;;;;;6153075;23;20075;-79
2022/05/24 12:09:26;;;;;;;3.50;2.17;;;28.60;46.30;;;;;;6121732;23;20021;-78
2022/05/24 12:12:31;;;;;;;10.65;2.28;;;28.60;44.90;;;;;;6141422;23;20076;-79
2022/05/24 12:15:12;;;;;;;6.88;2.15;;;28.60;45.70;;;;;;6144008;23;20473;-77
2022/05/24 12:17:39;;;;;;;3.03;1.63;;;28.50;45.10;;;;;;6153546;23;20018;-81
2022/05/24 12:20:34;;;;;;;9.27;2.60;;;28.50;46.10;;;;;;6155951;23;20025;-80
2022/05/24 12:23:04;;;;;;;7.00;2.25;;;28.40;46.20;;;;;;6128418;23;20025;-78
2022/05/24 12:26:02;;;;;;;4.97;2.25;;;28.40;46.10;;;;;;6151769;23;20022;-79
2022/05/24 12:28:37;;;;;;;3.88;2.30;;;28.30;46.40;;;;;;6153481;23;20458;-78
2022/05/24 12:31:07;;;;;;;2.65;1.75;;;28.30;45.60;;;;;;6122551;23;20067;-78
2022/05/24 12:33:38;;;;;;;5.75;2.10;;;28.30;45.90;;;;;;6149389;23;20025;-77
2022/05/24 12:36:26;;;;;;;7.05;2.70;;;28.50;45.90;;;;;;6143227;23;20459;-78
2022/05/24 12:39:21;;;;;;;3.67;2.33;;;28.70;45.50;;;;;;6153725;23;20026;-79
2022/05/24 12:41:56;;;;;;;6.82;1.85;;;28.90;45.10;;;;;;6154971;23;20029;-78
2022/05/24 12:44:32;;;;;;;3.13;1.85;;;29.10;45.70;;;;;;6152132;23;20382;-78
2022/05/24 12:47:05;;;;;;;6.95;1.98;;;29.40;44.70;;;;;;6157002;23;20845;-80
2022/05/24 12:49:51;;;;;;;4.23;1.80;;;29.90;43.80;;;;;;6152905;23;20378;-80
2022/05/24 12:52:41;;;;;;;4.25;1.90;;;29.90;43.30;;;;;;6151986;23;20393;-79
2022/05/24 12:55:54;;;;;;;5.97;2.13;;;29.50;43.10;;;;;;6149276;23;20373;-80
2022/05/24 12:58:31;;;;;;;5.55;2.28;;;28.90;44.80;;;;;;6155402;23;20363;-78
2022/05/24 13:01:10;;;;;;;4.07;2.42;;;28.30;45.50;;;;;;6155292;23;20739;-78
2022/05/24 13:03:44;;;;;;;3.17;1.95;;;28.10;46.00;;;;;;6122915;23;20430;-80
2022/05/24 13:06:21;;;;;;;4.53;2.28;;;28.10;46.50;;;;;;6150042;23;20449;-79
2022/05/24 13:09:06;;;;;;;7.88;1.95;;;28.50;47.00;;;;;;6140571;23;20017;-77
2022/05/24 13:11:35;;;;;;;8.57;2.63;;;28.50;46.60;;;;;;6154498;23;20445;-79
2022/05/24 13:14:04;;;;;;;7.22;2.78;;;28.60;47.20;;;;;;6154967;23;20021;-77
2022/05/24 13:16:33;;;;;;;6.18;2.67;;;28.40;45.90;;;;;;6158623;23;20025;-77
2022/05/24 13:19:01;;;;;;;;;;;28.10;46.00;;;;;;6154526;23;20231;-79
2022/05/24 13:21:31;;;;;;;;;;;27.80;47.10;;;;;;6156060;23;19979;-79
2022/05/24 13:24:09;;;;;;;;;;;27.70;48.60;;;;;;6154471;23;19924;-79
2022/05/24 13:26:36;;;;;;;;;;;27.70;48.30;;;;;;6154852;23;19979;-81
2022/05/24 13:29:24;;;;;;;;;;;27.70;49.40;;;;;;6156256;23;20235;-77
2022/05/24 13:34:36;;;;;;;;;;;27.30;49.70;;;;;;6181548;23;19920;-78
2022/05/24 13:37:08;;;;;;;;;;;27.10;49.80;;;;;;6184186;23;19924;-77
2022/05/24 13:39:44;;;;;;;;;;;27.00;50.50;;;;;;6160889;23;19939;-79
2022/05/24 13:42:17;;;;;;;;;;;26.80;51.50;;;;;;6159375;23;20329;-80
2022/05/24 13:45:08;;;;;;;;;;;26.90;51.70;;;;;;6159042;23;19924;-80
2022/05/24 13:47:38;;;;;;;;;;;27.00;50.20;;;;;;6160363;23;19983;-77
2022/05/24 13:50:23;;;;;;;;;;;27.00;50.20;;;;;;6160326;23;20289;-80
2022/05/24 13:52:50;;;;;;;;;;;27.10;50.30;;;;;;6161255;23;20345;-80
2022/05/24 13:55:22;;;;;;;;;;;27.10;50.50;;;;;;6162205;23;19916;-79
2022/05/24 13:57:48;;;;;;;;;;;27.20;50.80;;;;;;6184631;23;19916;-81
2022/05/24 14:00:32;;;;;;;;;;;27.10;51.70;;;;;;6163720;23;19916;-81
2022/05/24 14:03:17;;;;;;;;;;;27.10;52.20;;;;;;6160330;23;19916;-80
2022/05/24 14:05:47;;;;;;;;;;;26.90;52.20;;;;;;6158409;23;19916;-81
2022/05/24 14:08:14;;;;;;;;;;;26.90;52.90;;;;;;6160152;23;20230;-77
2022/05/24 14:10:41;;;;;;;;;;;26.90;52.70;;;;;;6159985;23;19924;-78
2022/05/24 14:13:09;;;;;;;;;;;26.80;53.00;;;;;;6161046;23;19916;-77
2022/05/24 14:15:36;;;;;;;;;;;26.70;52.80;;;;;;6157988;23;20329;-78
2022/05/24 14:18:03;;;;;;;;;;;26.70;53.20;;;;;;6183741;23;19923;-77
2022/05/24 14:20:37;;;;;;;;;;;26.60;52.60;;;;;;6162969;23;19916;-77
2022/05/24 14:23:05;;;;;;;;;;;26.50;53.00;;;;;;6159559;23;19920;-77
2022/05/24 14:25:31;;;;;;;;;;;26.50;54.20;;;;;;6187901;23;19923;-77
2022/05/24 14:27:59;;;;;;;;;;;26.50;54.60;;;;;;6159197;23;19924;-78
2022/05/24 14:30:27;;;;;;;;;;;26.30;56.30;;;;;;6159357;23;20295;-77
2022/05/24 14:32:59;;;;;;;;;;;26.20;57.50;;;;;;6159564;23;19916;-78
2022/05/24 14:35:27;;;;;;;;;;;26.20;57.60;;;;;;6183825;23;19994;-80
2022/05/24 14:37:55;;;;;;;;;;;26.20;57.70;;;;;;6158840;23;19963;-78
2022/05/24 14:40:22;;;;;;;;;;;26.20;57.50;;;;;;6159020;23;19920;-78
2022/05/24 14:42:52;;;;;;;;;;;26.30;57.20;;;;;;6159224;23;19923;-80
2022/05/24 14:45:19;;;;;;;;;;;26.50;56.80;;;;;;6159099;23;19916;-78
2022/05/24 14:47:47;;;;;;;;;;;26.60;55.70;;;;;;6158244;23;19947;-77
2022/05/24 14:50:15;;;;;;;;;;;26.70;55.50;;;;;;6185945;23;19916;-77
2022/05/24 14:52:44;;;;;;;;;;;27.00;55.30;;;;;;6159921;23;19943;-77
2022/05/24 14:55:18;;;;;;;;;;;27.40;54.60;;;;;;6156012;23;19967;-77
2022/05/24 14:57:45;;;;;;;;;;;27.70;53.90;;;;;;6159986;23;19920;-80
2022/05/24 15:00:22;;;;;;;;;;;28.00;52.40;;;;;;6161545;23;19947;-81
2022/05/24 15:02:52;;;;;;;;;;;28.50;52.30;;;;;;6159703;23;19923;-80
2022/05/24 15:05:19;;;;;;;;;;;28.80;50.60;;;;;;6160291;23;19932;-79